createdAt,value
2022-12-22T00:00:46.718Z,24.43
2022-12-22T00:03:53.023Z,21.40
2022-12-22T00:06:59.081Z,21.67
2022-12-22T00:10:06.838Z,21.27
2022-12-22T00:13:13.355Z,22.70
2022-12-22T00:16:19.926Z,21.97
2022-12-22T00:19:31.676Z,22.40
2022-12-22T00:22:39.383Z,22.87
2022-12-22T00:25:47.788Z,22.73
2022-12-22T00:28:54.886Z,22.87
2022-12-22T00:32:01.896Z,22.67
2022-12-22T00:35:08.559Z,23.53
2022-12-22T00:38:14.857Z,21.83
2022-12-22T00:41:23.532Z,21.10
2022-12-22T00:44:29.910Z,22.40
2022-12-22T00:47:45.413Z,23.00
2022-12-22T00:50:54.599Z,21.77
2022-12-22T00:54:00.962Z,21.37
2022-12-22T00:57:08.997Z,21.73
2022-12-22T01:00:16.522Z,19.70
2022-12-22T01:03:23.905Z,22.03
2022-12-22T01:06:30.245Z,21.23
2022-12-22T01:09:37.073Z,22.73
2022-12-22T01:12:47.031Z,22.10
2022-12-22T01:15:53.303Z,24.33
2022-12-22T01:18:59.737Z,21.93
2022-12-22T01:22:06.464Z,22.07
2022-12-22T01:25:12.894Z,23.07
2022-12-22T01:28:20.950Z,23.67
2022-12-22T01:31:36.395Z,24.70
2022-12-22T01:34:42.623Z,22.70
2022-12-22T01:37:49.442Z,22.50
2022-12-22T01:40:55.942Z,22.00
2022-12-22T01:44:03.482Z,22.83
2022-12-22T01:47:09.715Z,22.20
2022-12-22T01:50:16.042Z,22.37
2022-12-22T01:53:25.861Z,22.87
2022-12-22T01:56:32.519Z,22.83
2022-12-22T01:59:40.464Z,22.80
2022-12-22T02:02:50.679Z,21.27
2022-12-22T02:06:02.672Z,22.87
2022-12-22T02:09:24.320Z,22.60
2022-12-22T02:12:39.001Z,23.50
2022-12-22T02:15:53.659Z,20.60
2022-12-22T02:19:04.456Z,21.60
2022-12-22T02:22:22.862Z,22.37
2022-12-22T02:25:33.922Z,22.03
2022-12-22T02:28:42.379Z,22.27
2022-12-22T02:31:54.263Z,22.27
2022-12-22T02:35:00.582Z,20.97
2022-12-22T02:38:16.695Z,21.13
2022-12-22T02:41:39.905Z,21.60
2022-12-22T02:44:57.580Z,22.63
2022-12-22T02:48:09.671Z,23.40
2022-12-22T02:51:24.237Z,21.70
2022-12-22T02:54:33.146Z,21.63
2022-12-22T02:57:40.243Z,22.90
2022-12-22T03:00:48.494Z,22.67
2022-12-22T03:03:55.956Z,21.53
2022-12-22T03:07:02.430Z,22.77
2022-12-22T03:10:08.412Z,20.87
2022-12-22T03:13:18.264Z,21.13
2022-12-22T03:16:26.460Z,21.63
2022-12-22T03:19:32.670Z,21.13
2022-12-22T03:22:39.053Z,21.23
2022-12-22T03:25:45.207Z,22.10
2022-12-22T03:28:34.384Z,22.10
2022-12-22T03:31:25.164Z,22.00
2022-12-22T03:34:13.955Z,23.97
2022-12-22T03:37:02.934Z,23.67
2022-12-22T03:39:52.133Z,22.83
2022-12-22T03:42:58.414Z,22.63
2022-12-22T03:46:16.319Z,22.40
2022-12-22T03:49:12.867Z,23.07
2022-12-22T03:52:01.911Z,23.23
2022-12-22T03:54:50.700Z,22.40
2022-12-22T03:57:39.560Z,22.10
2022-12-22T04:00:28.539Z,24.00
2022-12-22T04:03:17.801Z,22.60
2022-12-22T04:06:08.213Z,23.80
2022-12-22T04:08:57.782Z,20.97
2022-12-22T04:12:04.377Z,21.27
2022-12-22T04:14:53.526Z,22.67
2022-12-22T04:17:42.738Z,24.33
2022-12-22T04:20:31.606Z,23.60
2022-12-22T04:23:22.185Z,23.03
2022-12-22T04:26:11.172Z,22.27
2022-12-22T04:29:00.047Z,22.07
2022-12-22T04:31:49.274Z,25.57
2022-12-22T04:34:38.505Z,23.10
2022-12-22T04:37:27.779Z,22.50
2022-12-22T04:40:19.157Z,23.10
2022-12-22T04:43:08.438Z,24.33
2022-12-22T04:46:00.051Z,21.67
2022-12-22T04:48:53.127Z,22.63
2022-12-22T04:51:45.741Z,23.83
2022-12-22T04:54:35.096Z,22.50
2022-12-22T04:57:25.454Z,23.20
2022-12-22T05:00:15.410Z,24.67
2022-12-22T05:03:05.300Z,23.97
2022-12-22T05:05:54.649Z,23.67
2022-12-22T05:08:43.646Z,24.37
2022-12-22T05:11:32.663Z,23.17
2022-12-22T05:14:23.602Z,22.83
2022-12-22T05:17:12.636Z,23.17
2022-12-22T05:20:02.003Z,23.27
2022-12-22T05:22:51.702Z,24.33
2022-12-22T05:25:41.203Z,22.40
2022-12-22T05:28:29.982Z,24.20
2022-12-22T05:31:22.380Z,24.17
2022-12-22T05:34:11.451Z,24.87
2022-12-22T05:37:00.785Z,20.93
2022-12-22T05:39:49.892Z,23.03
2022-12-22T05:42:38.427Z,22.83
2022-12-22T05:45:27.186Z,22.90
2022-12-22T05:48:22.495Z,22.33
2022-12-22T05:51:15.511Z,22.63
2022-12-22T05:54:04.284Z,21.80
2022-12-22T05:56:53.709Z,23.50
2022-12-22T05:59:42.298Z,21.77
2022-12-22T06:02:31.199Z,22.70
2022-12-22T06:05:21.225Z,22.10
2022-12-22T06:08:10.459Z,22.03
2022-12-22T06:11:00.115Z,21.17
2022-12-22T06:13:49.312Z,20.83
2022-12-22T06:16:38.791Z,20.00
2022-12-22T06:19:28.173Z,21.30
2022-12-22T06:22:19.067Z,20.03
2022-12-22T06:25:12.073Z,19.43
2022-12-22T06:28:04.501Z,21.07
2022-12-22T06:30:53.566Z,19.80
2022-12-22T06:33:42.887Z,19.50
2022-12-22T06:36:32.107Z,19.67
2022-12-22T06:39:24.046Z,21.30
2022-12-22T06:42:32.803Z,22.07
2022-12-22T06:45:21.722Z,18.00
2022-12-22T06:48:12.769Z,18.40
2022-12-22T06:51:02.334Z,19.57
2022-12-22T06:53:51.599Z,17.87
2022-12-22T06:56:41.823Z,17.80
2022-12-22T06:59:31.815Z,16.77
2022-12-22T07:02:21.332Z,17.57
2022-12-22T07:05:11.283Z,17.60
2022-12-22T07:08:07.706Z,17.70
2022-12-22T07:11:01.698Z,25.83
2022-12-22T07:13:52.379Z,17.77
2022-12-22T07:16:41.494Z,18.03
2022-12-22T07:19:30.557Z,17.30
2022-12-22T07:22:21.685Z,16.97
2022-12-22T07:25:14.829Z,19.13
2022-12-22T07:28:05.043Z,16.90
2022-12-22T07:30:56.348Z,16.90
2022-12-22T07:33:45.249Z,16.13
2022-12-22T07:36:34.323Z,15.83
2022-12-22T07:39:23.408Z,15.83
2022-12-22T07:42:31.280Z,16.70
2022-12-22T07:59:03.797Z,16.87
2022-12-22T08:01:52.515Z,16.87
2022-12-22T08:04:41.659Z,16.40
2022-12-22T08:07:32.639Z,17.07
2022-12-22T08:10:22.495Z,17.27
2022-12-22T08:13:11.668Z,17.17
2022-12-22T08:16:06.946Z,18.47
2022-12-22T08:18:56.342Z,17.40
2022-12-22T08:21:52.174Z,17.20
2022-12-22T08:24:42.284Z,16.70
2022-12-22T08:27:40.117Z,16.57
2022-12-22T08:30:29.398Z,16.93
2022-12-22T08:33:20.250Z,16.93
2022-12-22T08:36:10.891Z,16.83
2022-12-22T08:39:00.159Z,17.70
2022-12-22T08:41:52.945Z,17.30
2022-12-22T08:44:42.304Z,15.13
2022-12-22T08:47:31.745Z,16.77
2022-12-22T08:50:22.501Z,15.60
2022-12-22T08:53:37.152Z,14.93
2022-12-22T08:56:20.824Z,15.57
2022-12-22T08:59:09.787Z,14.60
2022-12-22T09:01:59.157Z,15.07
2022-12-22T09:04:48.217Z,15.73
2022-12-22T09:07:38.635Z,15.50
2022-12-22T09:10:27.365Z,14.83
2022-12-22T09:13:16.649Z,14.60
2022-12-22T09:16:07.602Z,15.17
2022-12-22T09:18:57.171Z,15.17
2022-12-22T09:21:46.234Z,15.47
2022-12-22T09:24:37.452Z,15.60
2022-12-22T09:27:26.644Z,14.30
2022-12-22T09:30:17.099Z,14.97
2022-12-22T09:33:06.352Z,15.83
2022-12-22T09:35:55.728Z,16.07
2022-12-22T09:38:45.859Z,14.97
2022-12-22T09:41:38.891Z,14.67
2022-12-22T09:44:31.298Z,13.07
2022-12-22T09:47:24.690Z,14.07
2022-12-22T09:50:19.308Z,14.60
2022-12-22T09:53:14.894Z,13.80
2022-12-22T09:56:04.602Z,15.23
2022-12-22T09:58:55.306Z,14.07
2022-12-22T10:02:06.127Z,13.27
2022-12-22T10:05:07.491Z,12.77
2022-12-22T10:08:01.756Z,14.90
2022-12-22T10:10:55.214Z,14.70
2022-12-22T10:13:44.744Z,16.23
2022-12-22T10:16:34.951Z,14.47
2022-12-22T10:19:23.981Z,14.13
2022-12-22T10:22:23.511Z,15.60
2022-12-22T10:25:35.841Z,13.60
2022-12-22T10:28:41.743Z,14.83
2022-12-22T10:31:32.133Z,12.80
2022-12-22T10:34:23.293Z,13.13
2022-12-22T10:37:12.126Z,13.23
2022-12-22T10:40:01.515Z,13.37
2022-12-22T10:42:54.814Z,12.70
2022-12-22T10:45:49.202Z,14.33
2022-12-22T10:48:40.282Z,13.97
2022-12-22T10:51:31.094Z,15.03
2022-12-22T10:54:34.209Z,14.80
2022-12-22T10:57:31.248Z,14.97
2022-12-22T11:00:29.030Z,12.57
2022-12-22T11:03:31.370Z,12.67
2022-12-22T11:06:20.338Z,12.23
2022-12-22T11:09:32.369Z,12.10
2022-12-22T11:12:31.447Z,11.97
2022-12-22T11:15:29.726Z,12.40
2022-12-22T11:18:35.443Z,13.07
2022-12-22T11:21:32.404Z,13.10
2022-12-22T11:24:33.924Z,12.80
2022-12-22T11:27:39.476Z,11.63
2022-12-22T11:30:42.995Z,12.77
2022-12-22T11:33:42.656Z,11.80
2022-12-22T11:36:40.053Z,12.17
2022-12-22T11:39:40.452Z,13.47
2022-12-22T11:42:44.015Z,12.80
2022-12-22T11:45:52.960Z,12.40
2022-12-22T11:49:13.249Z,12.70
2022-12-22T11:52:13.562Z,12.33
2022-12-22T11:55:15.502Z,13.10
2022-12-22T11:58:34.768Z,13.00
2022-12-22T12:01:42.101Z,12.67
2022-12-22T12:05:22.818Z,14.40
2022-12-22T12:08:23.609Z,14.27
2022-12-22T12:11:23.835Z,14.47
2022-12-22T12:14:23.493Z,12.87
2022-12-22T12:17:21.883Z,14.33
2022-12-22T12:20:28.353Z,13.47
2022-12-22T12:23:37.060Z,15.07
2022-12-22T12:26:32.189Z,14.40
2022-12-22T12:29:23.663Z,14.83
2022-12-22T12:32:18.274Z,14.87
2022-12-22T12:35:22.064Z,15.00
2022-12-22T12:38:32.552Z,14.70
2022-12-22T12:41:32.002Z,14.73
2022-12-22T12:44:25.264Z,14.80
2022-12-22T12:47:24.959Z,13.37
2022-12-22T12:50:36.063Z,14.53
2022-12-22T12:53:26.542Z,15.33
2022-12-22T12:56:15.330Z,14.93
2022-12-22T12:59:06.095Z,15.50
2022-12-22T13:02:02.180Z,17.03
2022-12-22T13:05:13.968Z,14.90
2022-12-22T13:08:18.510Z,15.97
2022-12-22T13:15:02.263Z,16.23
2022-12-22T13:17:51.796Z,13.63
2022-12-22T13:20:40.820Z,16.17
2022-12-22T13:23:45.783Z,15.27
2022-12-22T13:26:42.865Z,16.57
2022-12-22T13:29:41.508Z,16.60
2022-12-22T13:32:36.055Z,15.80
2022-12-22T13:35:41.379Z,17.10
2022-12-22T13:38:37.333Z,17.17
2022-12-22T13:41:27.689Z,17.97
2022-12-22T13:44:19.843Z,17.20
2022-12-22T13:47:15.207Z,20.57
2022-12-22T13:50:09.694Z,16.53
2022-12-22T13:53:00.118Z,17.57
2022-12-22T13:55:50.433Z,16.90
2022-12-22T13:58:45.135Z,16.47
2022-12-22T14:01:34.786Z,18.20
2022-12-22T14:04:23.942Z,17.93
2022-12-22T14:07:15.091Z,17.97
2022-12-22T14:10:05.895Z,17.07
2022-12-22T14:12:55.209Z,16.90
2022-12-22T14:15:44.390Z,17.43
2022-12-22T14:18:34.902Z,18.10
2022-12-22T14:21:24.351Z,16.90
2022-12-22T14:24:20.653Z,17.97
2022-12-22T14:27:18.366Z,19.00
2022-12-22T14:30:16.736Z,18.27
2022-12-22T14:33:30.109Z,17.90
2022-12-22T14:36:23.955Z,18.57
2022-12-22T14:39:25.045Z,18.37
2022-12-22T14:42:15.368Z,18.47
2022-12-22T14:45:06.601Z,18.10
2022-12-22T14:47:56.783Z,17.93
2022-12-22T14:50:51.259Z,17.97
2022-12-22T14:53:45.887Z,18.70
2022-12-22T14:56:36.612Z,18.50
2022-12-22T14:59:27.904Z,17.47
2022-12-22T15:02:25.911Z,17.33
2022-12-22T15:05:24.884Z,18.00
2022-12-22T15:08:45.935Z,17.53
2022-12-22T15:11:38.960Z,17.77
2022-12-22T15:14:36.677Z,19.10
2022-12-22T15:17:27.947Z,17.97
2022-12-22T15:20:22.505Z,18.13
2022-12-22T15:23:14.404Z,19.07
2022-12-22T15:26:03.994Z,19.97
2022-12-22T15:28:55.228Z,19.40
2022-12-22T15:31:44.595Z,21.00
2022-12-22T15:34:34.318Z,20.03
2022-12-22T15:37:23.038Z,20.67
2022-12-22T15:40:18.883Z,20.50
2022-12-22T15:43:17.627Z,20.80
2022-12-22T15:46:20.071Z,20.83
2022-12-22T15:49:15.178Z,20.33
2022-12-22T15:52:06.887Z,21.57
2022-12-22T15:54:56.059Z,21.27
2022-12-22T15:57:45.727Z,20.17
2022-12-22T16:00:35.162Z,21.47
2022-12-22T16:03:27.416Z,21.20
2022-12-22T16:06:19.042Z,21.30
2022-12-22T16:09:12.503Z,22.10
2022-12-22T16:12:01.858Z,22.13
2022-12-22T16:14:54.651Z,21.07
2022-12-22T16:17:45.000Z,23.27
2022-12-22T16:20:40.433Z,21.47
2022-12-22T16:23:31.104Z,20.80
2022-12-22T16:26:24.171Z,21.00
2022-12-22T16:29:18.619Z,22.20
2022-12-22T16:32:18.411Z,21.03
2022-12-22T16:35:17.153Z,21.77
2022-12-22T16:38:11.683Z,22.40
2022-12-22T16:41:04.104Z,22.60
2022-12-22T16:47:01.467Z,20.80
2022-12-22T16:49:50.829Z,22.37
2022-12-22T16:52:43.914Z,22.83
2022-12-22T16:55:36.025Z,21.60
2022-12-22T16:58:25.306Z,20.23
2022-12-22T17:01:31.315Z,23.67
2022-12-22T17:04:22.610Z,22.70
2022-12-22T17:07:12.687Z,23.63
2022-12-22T17:10:03.304Z,22.17
2022-12-22T17:12:56.681Z,22.90
2022-12-22T17:15:45.572Z,21.83
2022-12-22T17:18:36.416Z,22.60
2022-12-22T17:21:25.713Z,22.47
2022-12-22T17:24:27.338Z,22.33
2022-12-22T17:27:19.273Z,22.03
2022-12-22T17:30:18.357Z,23.43
2022-12-22T17:33:10.783Z,22.67
2022-12-22T17:36:01.171Z,24.90
2022-12-22T17:38:50.105Z,23.40
2022-12-22T17:41:39.473Z,21.93
2022-12-22T17:44:29.074Z,22.10
2022-12-22T17:47:29.068Z,21.60
2022-12-22T17:50:24.373Z,21.73
2022-12-22T17:53:16.211Z,22.17
2022-12-22T17:56:08.200Z,21.10
2022-12-22T17:58:58.328Z,21.73
2022-12-22T18:01:47.817Z,23.97
2022-12-22T18:04:38.403Z,21.90
2022-12-22T18:07:27.411Z,22.53
2022-12-22T18:10:25.556Z,22.40
2022-12-22T18:13:18.596Z,22.00
2022-12-22T18:16:08.055Z,22.17
2022-12-22T18:18:57.142Z,21.50
2022-12-22T18:21:48.552Z,21.73
2022-12-22T18:24:37.119Z,21.27
2022-12-22T18:27:26.593Z,21.70
2022-12-22T18:30:21.955Z,20.70
2022-12-22T18:33:11.553Z,21.87
2022-12-22T18:36:01.115Z,20.63
2022-12-22T18:38:52.178Z,20.77
2022-12-22T18:41:41.435Z,22.00
2022-12-22T18:44:30.199Z,21.53
2022-12-22T18:47:19.421Z,22.93
2022-12-22T18:50:14.930Z,22.80
2022-12-22T18:53:07.550Z,22.33
2022-12-22T18:55:58.690Z,22.37
2022-12-22T18:58:48.053Z,24.03
2022-12-22T19:01:38.698Z,23.37
2022-12-22T19:04:27.801Z,21.30
2022-12-22T19:07:19.524Z,23.07
2022-12-22T19:10:13.869Z,22.73
2022-12-22T19:13:07.812Z,21.07
2022-12-22T19:15:57.903Z,23.27
2022-12-22T19:18:47.073Z,25.13
2022-12-22T19:21:36.351Z,23.33
2022-12-22T19:24:25.273Z,26.80
2022-12-22T19:27:20.373Z,26.83
2022-12-22T19:30:18.868Z,28.30
2022-12-22T19:33:08.961Z,24.23
2022-12-22T19:35:58.209Z,24.73
2022-12-22T19:38:51.194Z,25.03
2022-12-22T19:41:43.970Z,24.57
2022-12-22T19:44:33.056Z,27.77
2022-12-22T19:47:26.922Z,26.47
2022-12-22T19:50:17.644Z,27.43
2022-12-22T19:53:07.215Z,25.53
2022-12-22T19:55:57.901Z,23.73
2022-12-22T19:58:47.673Z,24.97
2022-12-22T20:01:36.996Z,24.47
2022-12-22T20:04:28.701Z,25.63
2022-12-22T20:07:18.385Z,25.63
2022-12-22T20:10:08.136Z,26.27
2022-12-22T20:12:59.466Z,25.53
2022-12-22T20:15:48.253Z,22.80
2022-12-22T20:18:37.298Z,24.47
2022-12-22T20:21:29.742Z,25.43
2022-12-22T20:24:24.520Z,23.57
2022-12-22T20:27:18.946Z,23.23
2022-12-22T20:30:12.095Z,24.03
2022-12-22T20:33:01.263Z,24.53
2022-12-22T20:35:52.041Z,24.63
2022-12-22T20:38:45.266Z,24.20
2022-12-22T20:41:34.398Z,24.03
2022-12-22T20:44:25.791Z,24.00
2022-12-22T20:47:22.250Z,23.13
2022-12-22T20:50:23.229Z,22.47
2022-12-22T20:53:16.354Z,23.37
2022-12-22T20:56:14.487Z,21.40
2022-12-22T20:59:14.341Z,23.77
2022-12-22T21:02:04.760Z,22.53
2022-12-22T21:04:54.299Z,21.30
2022-12-22T21:07:44.324Z,22.90
2022-12-22T21:10:33.893Z,22.87
2022-12-22T21:13:23.892Z,21.70
2022-12-22T21:16:16.886Z,20.40
2022-12-22T21:19:05.845Z,22.30
2022-12-22T21:21:56.571Z,22.83
2022-12-22T21:24:45.857Z,23.17
2022-12-22T21:27:34.768Z,21.27
2022-12-22T21:30:27.999Z,22.60
2022-12-22T21:33:17.279Z,22.20
2022-12-22T21:36:15.130Z,21.77
2022-12-22T21:39:08.838Z,21.40
2022-12-22T21:42:05.198Z,22.93
2022-12-22T21:44:54.767Z,23.23
2022-12-22T21:47:45.468Z,23.10
2022-12-22T21:50:36.056Z,22.10
2022-12-22T21:53:24.815Z,23.40
2022-12-22T21:56:19.500Z,22.13
2022-12-22T21:59:08.702Z,22.90
2022-12-22T22:01:58.187Z,23.37
2022-12-22T22:04:54.098Z,23.23
2022-12-22T22:07:44.271Z,20.97
2022-12-22T22:10:34.556Z,22.50
2022-12-22T22:13:23.509Z,22.13
2022-12-22T22:16:12.346Z,23.40
2022-12-22T22:19:01.768Z,24.83
2022-12-22T22:21:52.014Z,22.23
2022-12-22T22:24:40.777Z,22.23
2022-12-22T22:27:30.085Z,21.57
2022-12-22T22:30:21.202Z,23.07
2022-12-22T22:33:11.483Z,20.17
2022-12-22T22:36:06.333Z,24.13
2022-12-22T22:38:56.620Z,23.50
2022-12-22T22:41:45.673Z,23.57
2022-12-22T22:44:34.635Z,23.80
2022-12-22T22:47:23.733Z,22.67
2022-12-22T22:50:13.009Z,22.70
2022-12-22T22:53:01.925Z,22.37
2022-12-22T22:55:52.349Z,22.83
2022-12-22T22:58:41.461Z,21.80
2022-12-22T23:01:30.398Z,22.80
2022-12-22T23:04:19.535Z,24.07
2022-12-22T23:07:08.817Z,23.83
2022-12-22T23:09:57.589Z,22.03
2022-12-22T23:12:48.292Z,22.20
2022-12-22T23:15:37.400Z,21.23
2022-12-22T23:18:27.038Z,21.67
2022-12-22T23:21:15.960Z,21.57
2022-12-22T23:24:05.265Z,21.07
2022-12-22T23:26:54.746Z,21.63
2022-12-22T23:29:45.591Z,20.30
2022-12-22T23:32:34.619Z,21.83
2022-12-22T23:35:23.623Z,21.03
2022-12-22T23:38:13.926Z,21.93
2022-12-22T23:41:08.099Z,21.60
2022-12-22T23:43:57.545Z,21.20
2022-12-22T23:46:48.037Z,19.30
2022-12-22T23:49:37.398Z,21.10
2022-12-22T23:52:26.543Z,20.63
2022-12-22T23:55:15.845Z,20.50
2022-12-22T23:58:04.330Z,20.67
